< < Back
Terminal Aerodrome Forecast


Current Version              Previous Versions:   1  2  3  4  5  6  7  8  9  

Terminal Aerodrome Forecast

546
FTUS44 KOHX 282328
TAFCSV
TAF
KCSV 282328Z 2900/2924 00000KT P6SM SCT050
     FM290600 00000KT 4SM BR SCT100
     FM291100 00000KT 2SM BR SCT003
     FM291400 32005KT P6SM SCT100=



Latest METAR

365
SAUS70 KWBC 291900 RRA
MTRCSV
METAR KCSV 291853Z AUTO 03004KT 10SM BKN046 BKN060 BKN085 27/16 A3016
RMK AO2 SLP191 T02670156


USA.gov is the U.S. government's official web portal to all federal, state and local government web resources and services.